sensor_id;sensor_type;location;lat;lon;timestamp;P1;durP1;ratioP1;P2;durP2;ratioP2
13991;SDS011;7070;53.586;9.692;2022-09-09T00:01:37;0.30;;;0.30;;
13991;SDS011;7070;53.586;9.692;2022-09-09T00:04:14;0.30;;;0.30;;
13991;SDS011;7070;53.586;9.692;2022-09-09T00:06:50;0.40;;;0.40;;
13991;SDS011;7070;53.586;9.692;2022-09-09T00:09:25;0.40;;;0.40;;
13991;SDS011;7070;53.586;9.692;2022-09-09T00:11:54;0.40;;;0.40;;
13991;SDS011;7070;53.586;9.692;2022-09-09T00:14:31;0.40;;;0.40;;
13991;SDS011;7070;53.586;9.692;2022-09-09T00:17:04;0.40;;;0.40;;
13991;SDS011;7070;53.586;9.692;2022-09-09T00:19:37;0.40;;;0.40;;
13991;SDS011;7070;53.586;9.692;2022-09-09T00:22:15;0.40;;;0.40;;
13991;SDS011;7070;53.586;9.692;2022-09-09T00:24:44;0.40;;;0.40;;
13991;SDS011;7070;53.586;9.692;2022-09-09T00:27:14;0.40;;;0.40;;
13991;SDS011;7070;53.586;9.692;2022-09-09T00:29:47;0.33;;;0.33;;
13991;SDS011;7070;53.586;9.692;2022-09-09T00:32:19;0.30;;;0.30;;
13991;SDS011;7070;53.586;9.692;2022-09-09T00:34:48;0.40;;;0.40;;
13991;SDS011;7070;53.586;9.692;2022-09-09T00:37:19;0.40;;;0.40;;
13991;SDS011;7070;53.586;9.692;2022-09-09T00:39:48;0.37;;;0.37;;
13991;SDS011;7070;53.586;9.692;2022-09-09T00:42:20;0.40;;;0.40;;
13991;SDS011;7070;53.586;9.692;2022-09-09T00:44:52;0.40;;;0.40;;
13991;SDS011;7070;53.586;9.692;2022-09-09T00:47:43;0.40;;;0.40;;
13991;SDS011;7070;53.586;9.692;2022-09-09T00:50:17;0.40;;;0.40;;
13991;SDS011;7070;53.586;9.692;2022-09-09T00:53:02;0.40;;;0.40;;
13991;SDS011;7070;53.586;9.692;2022-09-09T00:55:40;0.40;;;0.40;;
13991;SDS011;7070;53.586;9.692;2022-09-09T00:58:11;0.33;;;0.33;;
13991;SDS011;7070;53.586;9.692;2022-09-09T01:00:40;0.40;;;0.40;;
13991;SDS011;7070;53.586;9.692;2022-09-09T01:03:21;0.40;;;0.40;;
13991;SDS011;7070;53.586;9.692;2022-09-09T01:06:01;0.40;;;0.40;;
13991;SDS011;7070;53.586;9.692;2022-09-09T01:08:39;0.40;;;0.40;;
13991;SDS011;7070;53.586;9.692;2022-09-09T01:11:16;0.30;;;0.30;;
13991;SDS011;7070;53.586;9.692;2022-09-09T01:13:49;0.47;;;0.47;;
13991;SDS011;7070;53.586;9.692;2022-09-09T01:16:23;0.40;;;0.40;;
13991;SDS011;7070;53.586;9.692;2022-09-09T01:18:51;0.33;;;0.33;;
13991;SDS011;7070;53.586;9.692;2022-09-09T01:21:22;0.40;;;0.40;;
13991;SDS011;7070;53.586;9.692;2022-09-09T01:24:08;0.40;;;0.40;;
13991;SDS011;7070;53.586;9.692;2022-09-09T01:26:45;0.40;;;0.40;;
13991;SDS011;7070;53.586;9.692;2022-09-09T01:29:16;0.40;;;0.40;;
13991;SDS011;7070;53.586;9.692;2022-09-09T01:31:51;0.40;;;0.40;;
13991;SDS011;7070;53.586;9.692;2022-09-09T01:34:20;0.40;;;0.40;;
13991;SDS011;7070;53.586;9.692;2022-09-09T01:36:49;0.40;;;0.40;;
13991;SDS011;7070;53.586;9.692;2022-09-09T01:39:22;0.40;;;0.40;;
13991;SDS011;7070;53.586;9.692;2022-09-09T01:41:50;0.40;;;0.40;;
13991;SDS011;7070;53.586;9.692;2022-09-09T01:44:17;0.40;;;0.40;;
13991;SDS011;7070;53.586;9.692;2022-09-09T01:46:45;0.40;;;0.40;;
13991;SDS011;7070;53.586;9.692;2022-09-09T01:49:12;0.40;;;0.40;;
13991;SDS011;7070;53.586;9.692;2022-09-09T01:51:39;0.40;;;0.40;;
13991;SDS011;7070;53.586;9.692;2022-09-09T01:54:08;0.40;;;0.40;;
13991;SDS011;7070;53.586;9.692;2022-09-09T01:56:38;0.40;;;0.40;;
13991;SDS011;7070;53.586;9.692;2022-09-09T01:59:17;0.37;;;0.37;;
13991;SDS011;7070;53.586;9.692;2022-09-09T02:02:07;0.33;;;0.33;;
13991;SDS011;7070;53.586;9.692;2022-09-09T02:04:37;0.37;;;0.37;;
13991;SDS011;7070;53.586;9.692;2022-09-09T02:07:06;0.37;;;0.37;;
13991;SDS011;7070;53.586;9.692;2022-09-09T02:09:41;0.40;;;0.40;;
13991;SDS011;7070;53.586;9.692;2022-09-09T02:12:13;0.50;;;0.50;;
13991;SDS011;7070;53.586;9.692;2022-09-09T02:14:46;0.43;;;0.43;;
13991;SDS011;7070;53.586;9.692;2022-09-09T02:17:16;0.40;;;0.40;;
13991;SDS011;7070;53.586;9.692;2022-09-09T02:19:49;0.33;;;0.33;;
13991;SDS011;7070;53.586;9.692;2022-09-09T02:22:21;0.40;;;0.40;;
13991;SDS011;7070;53.586;9.692;2022-09-09T02:24:50;0.40;;;0.40;;
13991;SDS011;7070;53.586;9.692;2022-09-09T02:27:20;0.40;;;0.40;;
13991;SDS011;7070;53.586;9.692;2022-09-09T02:29:49;0.40;;;0.40;;
13991;SDS011;7070;53.586;9.692;2022-09-09T02:32:20;0.40;;;0.40;;
13991;SDS011;7070;53.586;9.692;2022-09-09T02:34:49;0.40;;;0.40;;
13991;SDS011;7070;53.586;9.692;2022-09-09T02:37:19;0.40;;;0.40;;
13991;SDS011;7070;53.586;9.692;2022-09-09T02:39:50;0.40;;;0.40;;
13991;SDS011;7070;53.586;9.692;2022-09-09T02:42:16;0.40;;;0.40;;
13991;SDS011;7070;53.586;9.692;2022-09-09T02:44:44;0.40;;;0.40;;
13991;SDS011;7070;53.586;9.692;2022-09-09T02:47:18;0.40;;;0.40;;
13991;SDS011;7070;53.586;9.692;2022-09-09T02:49:56;0.40;;;0.40;;
13991;SDS011;7070;53.586;9.692;2022-09-09T02:52:30;0.30;;;0.30;;
13991;SDS011;7070;53.586;9.692;2022-09-09T02:55:06;0.40;;;0.40;;
13991;SDS011;7070;53.586;9.692;2022-09-09T02:57:41;0.43;;;0.43;;
13991;SDS011;7070;53.586;9.692;2022-09-09T03:00:11;0.40;;;0.40;;
13991;SDS011;7070;53.586;9.692;2022-09-09T03:02:39;0.40;;;0.40;;
13991;SDS011;7070;53.586;9.692;2022-09-09T03:05:07;0.50;;;0.50;;
13991;SDS011;7070;53.586;9.692;2022-09-09T03:07:34;0.40;;;0.40;;
13991;SDS011;7070;53.586;9.692;2022-09-09T03:10:01;0.37;;;0.37;;
13991;SDS011;7070;53.586;9.692;2022-09-09T03:12:27;0.40;;;0.40;;
13991;SDS011;7070;53.586;9.692;2022-09-09T03:14:54;0.40;;;0.40;;
13991;SDS011;7070;53.586;9.692;2022-09-09T03:17:21;0.40;;;0.40;;
13991;SDS011;7070;53.586;9.692;2022-09-09T03:19:49;0.40;;;0.40;;
13991;SDS011;7070;53.586;9.692;2022-09-09T03:22:19;0.40;;;0.40;;
13991;SDS011;7070;53.586;9.692;2022-09-09T03:24:46;0.40;;;0.40;;
13991;SDS011;7070;53.586;9.692;2022-09-09T03:27:13;0.40;;;0.40;;
13991;SDS011;7070;53.586;9.692;2022-09-09T03:29:40;0.40;;;0.40;;
13991;SDS011;7070;53.586;9.692;2022-09-09T03:32:07;0.40;;;0.40;;
13991;SDS011;7070;53.586;9.692;2022-09-09T03:34:35;0.50;;;0.50;;
13991;SDS011;7070;53.586;9.692;2022-09-09T03:37:06;0.40;;;0.40;;
13991;SDS011;7070;53.586;9.692;2022-09-09T03:39:33;0.40;;;0.40;;
13991;SDS011;7070;53.586;9.692;2022-09-09T03:42:00;0.43;;;0.43;;
13991;SDS011;7070;53.586;9.692;2022-09-09T03:44:29;0.50;;;0.50;;
13991;SDS011;7070;53.586;9.692;2022-09-09T03:46:55;0.40;;;0.40;;
13991;SDS011;7070;53.586;9.692;2022-09-09T03:49:25;0.47;;;0.47;;
13991;SDS011;7070;53.586;9.692;2022-09-09T03:51:53;0.40;;;0.40;;
13991;SDS011;7070;53.586;9.692;2022-09-09T03:54:22;0.43;;;0.43;;
13991;SDS011;7070;53.586;9.692;2022-09-09T03:56:49;0.40;;;0.40;;
13991;SDS011;7070;53.586;9.692;2022-09-09T03:59:16;0.50;;;0.50;;
13991;SDS011;7070;53.586;9.692;2022-09-09T04:01:43;0.40;;;0.40;;
13991;SDS011;7070;53.586;9.692;2022-09-09T04:04:10;0.40;;;0.40;;
13991;SDS011;7070;53.586;9.692;2022-09-09T04:06:37;0.40;;;0.40;;
13991;SDS011;7070;53.586;9.692;2022-09-09T04:09:04;0.40;;;0.40;;
13991;SDS011;7070;53.586;9.692;2022-09-09T04:11:32;0.40;;;0.40;;
13991;SDS011;7070;53.586;9.692;2022-09-09T04:13:59;0.50;;;0.50;;
13991;SDS011;7070;53.586;9.692;2022-09-09T04:16:25;0.40;;;0.40;;
13991;SDS011;7070;53.586;9.692;2022-09-09T04:18:52;0.40;;;0.40;;
13991;SDS011;7070;53.586;9.692;2022-09-09T04:21:21;0.40;;;0.40;;
13991;SDS011;7070;53.586;9.692;2022-09-09T04:23:48;0.50;;;0.50;;
13991;SDS011;7070;53.586;9.692;2022-09-09T04:26:15;0.30;;;0.30;;
13991;SDS011;7070;53.586;9.692;2022-09-09T04:28:43;0.40;;;0.40;;
13991;SDS011;7070;53.586;9.692;2022-09-09T04:31:11;0.40;;;0.40;;
13991;SDS011;7070;53.586;9.692;2022-09-09T04:33:41;0.50;;;0.50;;
13991;SDS011;7070;53.586;9.692;2022-09-09T04:36:08;0.40;;;0.40;;
13991;SDS011;7070;53.586;9.692;2022-09-09T04:38:35;0.50;;;0.50;;
13991;SDS011;7070;53.586;9.692;2022-09-09T04:41:02;0.40;;;0.40;;
13991;SDS011;7070;53.586;9.692;2022-09-09T04:43:29;0.40;;;0.40;;
13991;SDS011;7070;53.586;9.692;2022-09-09T04:45:58;0.40;;;0.40;;
13991;SDS011;7070;53.586;9.692;2022-09-09T04:48:24;0.40;;;0.40;;
13991;SDS011;7070;53.586;9.692;2022-09-09T04:50:55;0.40;;;0.40;;
13991;SDS011;7070;53.586;9.692;2022-09-09T04:53:23;0.40;;;0.40;;
13991;SDS011;7070;53.586;9.692;2022-09-09T04:55:51;0.40;;;0.40;;
13991;SDS011;7070;53.586;9.692;2022-09-09T04:58:18;0.40;;;0.40;;
13991;SDS011;7070;53.586;9.692;2022-09-09T05:00:46;0.50;;;0.50;;
13991;SDS011;7070;53.586;9.692;2022-09-09T05:03:14;0.50;;;0.50;;
13991;SDS011;7070;53.586;9.692;2022-09-09T05:05:41;0.50;;;0.50;;
13991;SDS011;7070;53.586;9.692;2022-09-09T05:08:08;0.43;;;0.43;;
13991;SDS011;7070;53.586;9.692;2022-09-09T05:10:36;0.40;;;0.40;;
13991;SDS011;7070;53.586;9.692;2022-09-09T05:13:06;0.43;;;0.43;;
13991;SDS011;7070;53.586;9.692;2022-09-09T05:15:34;0.40;;;0.40;;
13991;SDS011;7070;53.586;9.692;2022-09-09T05:18:01;0.40;;;0.40;;
13991;SDS011;7070;53.586;9.692;2022-09-09T05:20:29;0.50;;;0.50;;
13991;SDS011;7070;53.586;9.692;2022-09-09T05:22:57;0.40;;;0.40;;
13991;SDS011;7070;53.586;9.692;2022-09-09T05:25:23;0.50;;;0.50;;
13991;SDS011;7070;53.586;9.692;2022-09-09T05:27:51;0.50;;;0.50;;
13991;SDS011;7070;53.586;9.692;2022-09-09T05:30:18;0.40;;;0.40;;
13991;SDS011;7070;53.586;9.692;2022-09-09T05:32:45;0.40;;;0.40;;
13991;SDS011;7070;53.586;9.692;2022-09-09T05:35:12;0.50;;;0.50;;
13991;SDS011;7070;53.586;9.692;2022-09-09T05:37:41;0.50;;;0.50;;
13991;SDS011;7070;53.586;9.692;2022-09-09T05:40:08;0.50;;;0.50;;
13991;SDS011;7070;53.586;9.692;2022-09-09T05:42:36;0.50;;;0.50;;
13991;SDS011;7070;53.586;9.692;2022-09-09T05:45:04;0.40;;;0.40;;
13991;SDS011;7070;53.586;9.692;2022-09-09T05:47:32;0.40;;;0.40;;
13991;SDS011;7070;53.586;9.692;2022-09-09T05:50:00;0.50;;;0.50;;
13991;SDS011;7070;53.586;9.692;2022-09-09T05:52:27;0.40;;;0.40;;
13991;SDS011;7070;53.586;9.692;2022-09-09T05:54:55;0.40;;;0.40;;
13991;SDS011;7070;53.586;9.692;2022-09-09T05:57:22;0.40;;;0.40;;
13991;SDS011;7070;53.586;9.692;2022-09-09T05:59:48;0.40;;;0.40;;
13991;SDS011;7070;53.586;9.692;2022-09-09T06:02:15;0.40;;;0.40;;
13991;SDS011;7070;53.586;9.692;2022-09-09T06:04:42;0.30;;;0.30;;
13991;SDS011;7070;53.586;9.692;2022-09-09T06:07:09;0.50;;;0.50;;
13991;SDS011;7070;53.586;9.692;2022-09-09T06:09:36;0.40;;;0.40;;
13991;SDS011;7070;53.586;9.692;2022-09-09T06:12:04;0.40;;;0.40;;
13991;SDS011;7070;53.586;9.692;2022-09-09T06:14:31;0.40;;;0.40;;
13991;SDS011;7070;53.586;9.692;2022-09-09T06:16:58;0.40;;;0.40;;
13991;SDS011;7070;53.586;9.692;2022-09-09T06:19:25;0.40;;;0.40;;
13991;SDS011;7070;53.586;9.692;2022-09-09T06:21:51;0.40;;;0.40;;
13991;SDS011;7070;53.586;9.692;2022-09-09T06:24:19;0.40;;;0.40;;
13991;SDS011;7070;53.586;9.692;2022-09-09T06:26:46;0.30;;;0.30;;
13991;SDS011;7070;53.586;9.692;2022-09-09T06:29:14;0.50;;;0.50;;
13991;SDS011;7070;53.586;9.692;2022-09-09T06:31:41;0.40;;;0.40;;
13991;SDS011;7070;53.586;9.692;2022-09-09T06:34:08;0.30;;;0.30;;
13991;SDS011;7070;53.586;9.692;2022-09-09T06:36:35;0.33;;;0.33;;
13991;SDS011;7070;53.586;9.692;2022-09-09T06:39:03;0.37;;;0.37;;
13991;SDS011;7070;53.586;9.692;2022-09-09T06:41:31;0.30;;;0.30;;
13991;SDS011;7070;53.586;9.692;2022-09-09T06:43:59;0.40;;;0.40;;
13991;SDS011;7070;53.586;9.692;2022-09-09T06:46:27;0.40;;;0.40;;
13991;SDS011;7070;53.586;9.692;2022-09-09T06:48:57;0.30;;;0.30;;
13991;SDS011;7070;53.586;9.692;2022-09-09T06:51:25;0.40;;;0.40;;
13991;SDS011;7070;53.586;9.692;2022-09-09T06:53:53;0.30;;;0.30;;
13991;SDS011;7070;53.586;9.692;2022-09-09T06:56:22;0.33;;;0.33;;
13991;SDS011;7070;53.586;9.692;2022-09-09T06:58:51;0.40;;;0.40;;
13991;SDS011;7070;53.586;9.692;2022-09-09T07:01:20;0.40;;;0.40;;
13991;SDS011;7070;53.586;9.692;2022-09-09T07:03:50;0.40;;;0.40;;
13991;SDS011;7070;53.586;9.692;2022-09-09T07:06:20;0.40;;;0.40;;
13991;SDS011;7070;53.586;9.692;2022-09-09T07:08:49;0.40;;;0.40;;
13991;SDS011;7070;53.586;9.692;2022-09-09T07:11:17;0.40;;;0.40;;
13991;SDS011;7070;53.586;9.692;2022-09-09T07:13:45;0.40;;;0.40;;
13991;SDS011;7070;53.586;9.692;2022-09-09T07:16:12;0.40;;;0.40;;
13991;SDS011;7070;53.586;9.692;2022-09-09T07:18:40;0.40;;;0.40;;
13991;SDS011;7070;53.586;9.692;2022-09-09T07:21:10;0.30;;;0.30;;
13991;SDS011;7070;53.586;9.692;2022-09-09T07:23:38;0.30;;;0.30;;
13991;SDS011;7070;53.586;9.692;2022-09-09T07:26:07;0.40;;;0.40;;
13991;SDS011;7070;53.586;9.692;2022-09-09T07:28:35;0.30;;;0.30;;
13991;SDS011;7070;53.586;9.692;2022-09-09T07:31:03;0.40;;;0.40;;
13991;SDS011;7070;53.586;9.692;2022-09-09T07:33:31;0.40;;;0.40;;
13991;SDS011;7070;53.586;9.692;2022-09-09T07:36:02;0.40;;;0.40;;
13991;SDS011;7070;53.586;9.692;2022-09-09T07:38:32;0.37;;;0.37;;
13991;SDS011;7070;53.586;9.692;2022-09-09T07:41:03;0.30;;;0.30;;
13991;SDS011;7070;53.586;9.692;2022-09-09T07:43:31;0.33;;;0.33;;
13991;SDS011;7070;53.586;9.692;2022-09-09T07:45:58;0.30;;;0.30;;
13991;SDS011;7070;53.586;9.692;2022-09-09T07:48:26;0.30;;;0.30;;
13991;SDS011;7070;53.586;9.692;2022-09-09T07:51:02;0.40;;;0.40;;
13991;SDS011;7070;53.586;9.692;2022-09-09T07:53:32;0.30;;;0.30;;
13991;SDS011;7070;53.586;9.692;2022-09-09T07:56:02;0.30;;;0.30;;
13991;SDS011;7070;53.586;9.692;2022-09-09T07:58:30;0.30;;;0.30;;
13991;SDS011;7070;53.586;9.692;2022-09-09T08:00:57;0.30;;;0.30;;
13991;SDS011;7070;53.586;9.692;2022-09-09T08:03:23;0.30;;;0.30;;
13991;SDS011;7070;53.586;9.692;2022-09-09T08:05:50;0.30;;;0.30;;
13991;SDS011;7070;53.586;9.692;2022-09-09T08:08:17;0.30;;;0.30;;
13991;SDS011;7070;53.586;9.692;2022-09-09T08:10:46;0.37;;;0.37;;
13991;SDS011;7070;53.586;9.692;2022-09-09T08:13:12;0.30;;;0.30;;
13991;SDS011;7070;53.586;9.692;2022-09-09T08:15:39;0.20;;;0.20;;
13991;SDS011;7070;53.586;9.692;2022-09-09T08:18:07;0.30;;;0.30;;
13991;SDS011;7070;53.586;9.692;2022-09-09T08:20:35;0.30;;;0.30;;
13991;SDS011;7070;53.586;9.692;2022-09-09T08:23:03;0.30;;;0.30;;
13991;SDS011;7070;53.586;9.692;2022-09-09T08:25:30;0.30;;;0.30;;
13991;SDS011;7070;53.586;9.692;2022-09-09T08:28:00;0.30;;;0.30;;
13991;SDS011;7070;53.586;9.692;2022-09-09T08:30:28;0.30;;;0.30;;
13991;SDS011;7070;53.586;9.692;2022-09-09T08:32:55;0.30;;;0.30;;
13991;SDS011;7070;53.586;9.692;2022-09-09T08:35:22;0.30;;;0.30;;
13991;SDS011;7070;53.586;9.692;2022-09-09T08:37:53;0.23;;;0.23;;
13991;SDS011;7070;53.586;9.692;2022-09-09T08:40:21;0.30;;;0.30;;
13991;SDS011;7070;53.586;9.692;2022-09-09T08:42:55;0.20;;;0.20;;
13991;SDS011;7070;53.586;9.692;2022-09-09T08:45:33;0.30;;;0.30;;
13991;SDS011;7070;53.586;9.692;2022-09-09T08:48:17;0.40;;;0.40;;
13991;SDS011;7070;53.586;9.692;2022-09-09T08:50:55;0.30;;;0.30;;
13991;SDS011;7070;53.586;9.692;2022-09-09T08:53:27;0.30;;;0.30;;
13991;SDS011;7070;53.586;9.692;2022-09-09T08:55:56;0.30;;;0.30;;
13991;SDS011;7070;53.586;9.692;2022-09-09T08:58:25;0.30;;;0.30;;
13991;SDS011;7070;53.586;9.692;2022-09-09T09:01:02;0.30;;;0.30;;
13991;SDS011;7070;53.586;9.692;2022-09-09T09:03:43;0.40;;;0.40;;
13991;SDS011;7070;53.586;9.692;2022-09-09T09:06:22;0.30;;;0.30;;
13991;SDS011;7070;53.586;9.692;2022-09-09T09:09:02;0.30;;;0.30;;
13991;SDS011;7070;53.586;9.692;2022-09-09T09:11:35;0.30;;;0.30;;
13991;SDS011;7070;53.586;9.692;2022-09-09T09:14:04;0.30;;;0.30;;
13991;SDS011;7070;53.586;9.692;2022-09-09T09:16:40;0.30;;;0.30;;
13991;SDS011;7070;53.586;9.692;2022-09-09T09:19:13;0.30;;;0.30;;
13991;SDS011;7070;53.586;9.692;2022-09-09T09:21:42;0.20;;;0.20;;
13991;SDS011;7070;53.586;9.692;2022-09-09T09:24:13;0.20;;;0.20;;
13991;SDS011;7070;53.586;9.692;2022-09-09T09:26:44;0.30;;;0.30;;
13991;SDS011;7070;53.586;9.692;2022-09-09T09:29:11;0.20;;;0.20;;
13991;SDS011;7070;53.586;9.692;2022-09-09T09:31:43;0.30;;;0.30;;
13991;SDS011;7070;53.586;9.692;2022-09-09T09:34:13;0.20;;;0.20;;
13991;SDS011;7070;53.586;9.692;2022-09-09T09:36:41;0.30;;;0.30;;
13991;SDS011;7070;53.586;9.692;2022-09-09T09:39:21;0.30;;;0.30;;
13991;SDS011;7070;53.586;9.692;2022-09-09T09:41:49;0.30;;;0.30;;
13991;SDS011;7070;53.586;9.692;2022-09-09T09:44:25;0.30;;;0.30;;
13991;SDS011;7070;53.586;9.692;2022-09-09T09:47:04;0.30;;;0.30;;
13991;SDS011;7070;53.586;9.692;2022-09-09T09:49:32;0.30;;;0.30;;
13991;SDS011;7070;53.586;9.692;2022-09-09T09:52:00;0.30;;;0.30;;
13991;SDS011;7070;53.586;9.692;2022-09-09T09:54:28;0.30;;;0.30;;
13991;SDS011;7070;53.586;9.692;2022-09-09T09:57:06;0.20;;;0.20;;
13991;SDS011;7070;53.586;9.692;2022-09-09T09:59:35;0.30;;;0.30;;
13991;SDS011;7070;53.586;9.692;2022-09-09T10:02:15;0.30;;;0.30;;
13991;SDS011;7070;53.586;9.692;2022-09-09T10:04:44;0.30;;;0.30;;
13991;SDS011;7070;53.586;9.692;2022-09-09T10:07:11;0.30;;;0.30;;
13991;SDS011;7070;53.586;9.692;2022-09-09T10:09:39;0.23;;;0.23;;
13991;SDS011;7070;53.586;9.692;2022-09-09T10:12:09;0.37;;;0.37;;
13991;SDS011;7070;53.586;9.692;2022-09-09T10:14:48;0.30;;;0.30;;
13991;SDS011;7070;53.586;9.692;2022-09-09T10:17:27;0.30;;;0.30;;
13991;SDS011;7070;53.586;9.692;2022-09-09T10:20:10;0.40;;;0.40;;
13991;SDS011;7070;53.586;9.692;2022-09-09T10:22:47;0.30;;;0.30;;
13991;SDS011;7070;53.586;9.692;2022-09-09T10:25:22;0.20;;;0.20;;
13991;SDS011;7070;53.586;9.692;2022-09-09T10:28:04;0.30;;;0.30;;
13991;SDS011;7070;53.586;9.692;2022-09-09T10:30:50;0.23;;;0.23;;
13991;SDS011;7070;53.586;9.692;2022-09-09T10:33:27;0.30;;;0.30;;
13991;SDS011;7070;53.586;9.692;2022-09-09T10:36:00;0.20;;;0.20;;
13991;SDS011;7070;53.586;9.692;2022-09-09T10:38:38;0.30;;;0.30;;
13991;SDS011;7070;53.586;9.692;2022-09-09T10:41:14;0.20;;;0.20;;
13991;SDS011;7070;53.586;9.692;2022-09-09T10:46:53;0.30;;;0.30;;
13991;SDS011;7070;53.586;9.692;2022-09-09T10:49:36;0.30;;;0.30;;
13991;SDS011;7070;53.586;9.692;2022-09-09T10:52:18;0.30;;;0.30;;
13991;SDS011;7070;53.586;9.692;2022-09-09T10:54:52;0.30;;;0.30;;
13991;SDS011;7070;53.586;9.692;2022-09-09T10:57:25;0.30;;;0.30;;
13991;SDS011;7070;53.586;9.692;2022-09-09T10:59:58;0.20;;;0.20;;
13991;SDS011;7070;53.586;9.692;2022-09-09T11:02:29;0.30;;;0.30;;
13991;SDS011;7070;53.586;9.692;2022-09-09T11:04:59;0.30;;;0.30;;
13991;SDS011;7070;53.586;9.692;2022-09-09T11:07:32;0.30;;;0.30;;
13991;SDS011;7070;53.586;9.692;2022-09-09T11:10:04;0.20;;;0.20;;
13991;SDS011;7070;53.586;9.692;2022-09-09T11:12:40;0.20;;;0.20;;
13991;SDS011;7070;53.586;9.692;2022-09-09T11:15:13;0.30;;;0.30;;
13991;SDS011;7070;53.586;9.692;2022-09-09T11:17:44;0.30;;;0.30;;
13991;SDS011;7070;53.586;9.692;2022-09-09T11:20:15;0.30;;;0.30;;
13991;SDS011;7070;53.586;9.692;2022-09-09T11:22:44;0.30;;;0.30;;
13991;SDS011;7070;53.586;9.692;2022-09-09T11:25:15;0.30;;;0.30;;
13991;SDS011;7070;53.586;9.692;2022-09-09T11:27:45;0.30;;;0.30;;
13991;SDS011;7070;53.586;9.692;2022-09-09T11:30:22;0.23;;;0.23;;
13991;SDS011;7070;53.586;9.692;2022-09-09T11:33:18;0.30;;;0.30;;
13991;SDS011;7070;53.586;9.692;2022-09-09T11:36:11;0.37;;;0.37;;
13991;SDS011;7070;53.586;9.692;2022-09-09T11:38:56;0.27;;;0.27;;
13991;SDS011;7070;53.586;9.692;2022-09-09T11:41:32;0.20;;;0.20;;
13991;SDS011;7070;53.586;9.692;2022-09-09T11:44:08;0.20;;;0.20;;
13991;SDS011;7070;53.586;9.692;2022-09-09T11:46:37;0.30;;;0.30;;
13991;SDS011;7070;53.586;9.692;2022-09-09T11:49:21;0.30;;;0.30;;
13991;SDS011;7070;53.586;9.692;2022-09-09T11:51:54;0.30;;;0.30;;
13991;SDS011;7070;53.586;9.692;2022-09-09T11:54:26;0.30;;;0.30;;
13991;SDS011;7070;53.586;9.692;2022-09-09T11:56:56;0.20;;;0.20;;
13991;SDS011;7070;53.586;9.692;2022-09-09T11:59:24;0.30;;;0.30;;
13991;SDS011;7070;53.586;9.692;2022-09-09T12:01:54;0.20;;;0.20;;
13991;SDS011;7070;53.586;9.692;2022-09-09T12:04:28;0.23;;;0.23;;
13991;SDS011;7070;53.586;9.692;2022-09-09T12:07:05;0.30;;;0.30;;
13991;SDS011;7070;53.586;9.692;2022-09-09T12:09:52;0.30;;;0.30;;
13991;SDS011;7070;53.586;9.692;2022-09-09T12:12:24;0.23;;;0.23;;
13991;SDS011;7070;53.586;9.692;2022-09-09T12:14:58;0.20;;;0.20;;
13991;SDS011;7070;53.586;9.692;2022-09-09T12:17:27;0.20;;;0.20;;
13991;SDS011;7070;53.586;9.692;2022-09-09T12:20:02;0.20;;;0.20;;
13991;SDS011;7070;53.586;9.692;2022-09-09T12:22:37;0.30;;;0.30;;
13991;SDS011;7070;53.586;9.692;2022-09-09T12:25:16;0.20;;;0.20;;
13991;SDS011;7070;53.586;9.692;2022-09-09T12:27:53;0.20;;;0.20;;
13991;SDS011;7070;53.586;9.692;2022-09-09T12:30:28;0.20;;;0.20;;
13991;SDS011;7070;53.586;9.692;2022-09-09T12:33:00;0.20;;;0.20;;
13991;SDS011;7070;53.586;9.692;2022-09-09T12:35:27;0.30;;;0.30;;
13991;SDS011;7070;53.586;9.692;2022-09-09T12:37:57;0.10;;;0.10;;
13991;SDS011;7070;53.586;9.692;2022-09-09T12:40:28;0.30;;;0.30;;
13991;SDS011;7070;53.586;9.692;2022-09-09T12:42:57;0.20;;;0.20;;
13991;SDS011;7070;53.586;9.692;2022-09-09T12:45:26;0.23;;;0.23;;
13991;SDS011;7070;53.586;9.692;2022-09-09T12:47:56;0.30;;;0.30;;
13991;SDS011;7070;53.586;9.692;2022-09-09T12:50:26;0.30;;;0.30;;
13991;SDS011;7070;53.586;9.692;2022-09-09T12:52:55;0.20;;;0.20;;
13991;SDS011;7070;53.586;9.692;2022-09-09T12:55:27;0.30;;;0.30;;
13991;SDS011;7070;53.586;9.692;2022-09-09T12:57:56;0.20;;;0.20;;
13991;SDS011;7070;53.586;9.692;2022-09-09T13:00:24;0.30;;;0.30;;
13991;SDS011;7070;53.586;9.692;2022-09-09T13:02:52;0.30;;;0.30;;
13991;SDS011;7070;53.586;9.692;2022-09-09T13:05:21;0.30;;;0.30;;
13991;SDS011;7070;53.586;9.692;2022-09-09T13:07:50;0.30;;;0.30;;
13991;SDS011;7070;53.586;9.692;2022-09-09T13:10:21;0.30;;;0.30;;
13991;SDS011;7070;53.586;9.692;2022-09-09T13:12:51;0.20;;;0.20;;
13991;SDS011;7070;53.586;9.692;2022-09-09T13:15:19;0.30;;;0.30;;
13991;SDS011;7070;53.586;9.692;2022-09-09T13:17:51;0.20;;;0.20;;
13991;SDS011;7070;53.586;9.692;2022-09-09T13:20:20;0.27;;;0.27;;
13991;SDS011;7070;53.586;9.692;2022-09-09T13:22:48;0.27;;;0.27;;
13991;SDS011;7070;53.586;9.692;2022-09-09T13:25:18;0.27;;;0.27;;
13991;SDS011;7070;53.586;9.692;2022-09-09T13:27:59;0.30;;;0.30;;
13991;SDS011;7070;53.586;9.692;2022-09-09T13:30:29;0.20;;;0.20;;
13991;SDS011;7070;53.586;9.692;2022-09-09T13:33:05;0.30;;;0.30;;
13991;SDS011;7070;53.586;9.692;2022-09-09T13:35:45;0.20;;;0.20;;
13991;SDS011;7070;53.586;9.692;2022-09-09T13:38:14;0.30;;;0.30;;
13991;SDS011;7070;53.586;9.692;2022-09-09T13:40:52;0.30;;;0.30;;
13991;SDS011;7070;53.586;9.692;2022-09-09T13:43:23;0.30;;;0.30;;
13991;SDS011;7070;53.586;9.692;2022-09-09T13:45:54;0.30;;;0.30;;
13991;SDS011;7070;53.586;9.692;2022-09-09T13:48:23;0.23;;;0.23;;
13991;SDS011;7070;53.586;9.692;2022-09-09T13:50:53;0.30;;;0.30;;
13991;SDS011;7070;53.586;9.692;2022-09-09T13:53:21;0.30;;;0.30;;
13991;SDS011;7070;53.586;9.692;2022-09-09T13:55:48;0.30;;;0.30;;
13991;SDS011;7070;53.586;9.692;2022-09-09T13:58:17;0.27;;;0.27;;
13991;SDS011;7070;53.586;9.692;2022-09-09T14:00:45;0.27;;;0.27;;
13991;SDS011;7070;53.586;9.692;2022-09-09T14:03:12;0.30;;;0.30;;
13991;SDS011;7070;53.586;9.692;2022-09-09T14:05:39;0.30;;;0.30;;
13991;SDS011;7070;53.586;9.692;2022-09-09T14:08:07;0.30;;;0.30;;
13991;SDS011;7070;53.586;9.692;2022-09-09T14:10:41;0.30;;;0.30;;
13991;SDS011;7070;53.586;9.692;2022-09-09T14:13:07;0.27;;;0.27;;
13991;SDS011;7070;53.586;9.692;2022-09-09T14:15:36;0.30;;;0.30;;
13991;SDS011;7070;53.586;9.692;2022-09-09T14:18:02;0.30;;;0.30;;
13991;SDS011;7070;53.586;9.692;2022-09-09T14:20:29;0.30;;;0.30;;
13991;SDS011;7070;53.586;9.692;2022-09-09T14:22:56;0.30;;;0.30;;
13991;SDS011;7070;53.586;9.692;2022-09-09T14:25:23;0.30;;;0.30;;
13991;SDS011;7070;53.586;9.692;2022-09-09T14:27:50;0.30;;;0.30;;
13991;SDS011;7070;53.586;9.692;2022-09-09T14:30:17;0.20;;;0.20;;
13991;SDS011;7070;53.586;9.692;2022-09-09T14:32:45;0.30;;;0.30;;
13991;SDS011;7070;53.586;9.692;2022-09-09T14:35:12;0.30;;;0.30;;
13991;SDS011;7070;53.586;9.692;2022-09-09T14:37:39;0.20;;;0.20;;
13991;SDS011;7070;53.586;9.692;2022-09-09T14:40:06;0.20;;;0.20;;
13991;SDS011;7070;53.586;9.692;2022-09-09T14:42:33;0.30;;;0.30;;
13991;SDS011;7070;53.586;9.692;2022-09-09T14:45:00;0.30;;;0.30;;
13991;SDS011;7070;53.586;9.692;2022-09-09T14:47:27;0.30;;;0.30;;
13991;SDS011;7070;53.586;9.692;2022-09-09T14:49:55;0.30;;;0.30;;
13991;SDS011;7070;53.586;9.692;2022-09-09T14:52:22;0.30;;;0.30;;
13991;SDS011;7070;53.586;9.692;2022-09-09T14:54:48;0.30;;;0.30;;
13991;SDS011;7070;53.586;9.692;2022-09-09T14:57:15;0.40;;;0.40;;
13991;SDS011;7070;53.586;9.692;2022-09-09T14:59:42;0.20;;;0.20;;
13991;SDS011;7070;53.586;9.692;2022-09-09T15:02:09;0.30;;;0.30;;
13991;SDS011;7070;53.586;9.692;2022-09-09T15:04:38;0.30;;;0.30;;
13991;SDS011;7070;53.586;9.692;2022-09-09T15:07:06;0.40;;;0.40;;
13991;SDS011;7070;53.586;9.692;2022-09-09T15:09:33;0.30;;;0.30;;
13991;SDS011;7070;53.586;9.692;2022-09-09T15:11:59;0.30;;;0.30;;
13991;SDS011;7070;53.586;9.692;2022-09-09T15:14:27;0.30;;;0.30;;
13991;SDS011;7070;53.586;9.692;2022-09-09T15:16:55;0.20;;;0.20;;
13991;SDS011;7070;53.586;9.692;2022-09-09T15:19:22;0.30;;;0.30;;
13991;SDS011;7070;53.586;9.692;2022-09-09T15:21:49;0.30;;;0.30;;
13991;SDS011;7070;53.586;9.692;2022-09-09T15:24:17;0.30;;;0.30;;